createdAt,value
2019-03-24T00:04:22.199Z,1.99
2019-03-24T00:09:31.486Z,2.02
2019-03-24T00:14:40.555Z,1.67
2019-03-24T00:19:49.747Z,2.04
2019-03-24T00:24:58.836Z,2.35
2019-03-24T00:30:07.942Z,1.55
2019-03-24T00:35:16.995Z,1.58
2019-03-24T00:40:26.718Z,1.32
2019-03-24T00:45:37.071Z,1.50
2019-03-24T00:50:45.098Z,2.37
2019-03-24T00:55:54.182Z,2.67
2019-03-24T01:01:03.288Z,2.03
2019-03-24T01:06:12.341Z,2.00
2019-03-24T01:11:22.221Z,1.54
2019-03-24T01:16:31.273Z,1.95
2019-03-24T01:21:40.469Z,1.76
2019-03-24T01:26:49.510Z,2.05
2019-03-24T01:31:58.645Z,1.88
2019-03-24T01:37:07.699Z,2.19
2019-03-24T01:42:16.847Z,1.75
2019-03-24T01:47:25.882Z,1.94
2019-03-24T01:52:35.078Z,2.30
2019-03-24T01:57:44.158Z,1.88
2019-03-24T02:02:53.566Z,1.90
2019-03-24T02:08:02.700Z,1.78
2019-03-24T02:13:12.017Z,2.07
2019-03-24T02:18:21.066Z,2.20
2019-03-24T02:23:30.173Z,2.06
2019-03-24T02:28:39.218Z,2.67
2019-03-24T02:33:48.562Z,2.23
2019-03-24T02:38:57.658Z,2.60
2019-03-24T02:44:06.838Z,2.35
2019-03-24T02:49:15.894Z,2.27
2019-03-24T02:54:24.996Z,2.52
2019-03-24T02:59:34.107Z,2.40
2019-03-24T03:04:43.242Z,2.65
2019-03-24T03:09:52.318Z,2.53
2019-03-24T03:15:01.443Z,3.27
2019-03-24T03:20:10.470Z,3.53
2019-03-24T03:25:19.702Z,4.21
2019-03-24T03:30:28.792Z,3.71
2019-03-24T03:35:37.946Z,3.05
2019-03-24T03:40:47.045Z,3.94
2019-03-24T03:45:56.130Z,4.79
2019-03-24T03:51:05.282Z,3.87
2019-03-24T03:56:14.370Z,3.87
2019-03-24T04:01:23.454Z,3.61
2019-03-24T04:06:32.584Z,4.02
2019-03-24T04:11:41.669Z,3.58
2019-03-24T04:16:50.818Z,4.12
2019-03-24T04:21:59.851Z,4.52
2019-03-24T04:27:08.969Z,4.10
2019-03-24T04:32:18.054Z,3.76
2019-03-24T04:37:27.184Z,4.70
2019-03-24T04:42:36.328Z,4.66
2019-03-24T04:47:45.442Z,3.52
2019-03-24T04:52:54.546Z,3.31
2019-03-24T04:58:03.647Z,3.50
2019-03-24T05:03:12.687Z,3.69
2019-03-24T05:08:21.786Z,4.62
2019-03-24T05:13:30.831Z,4.38
2019-03-24T05:18:40.022Z,4.93
2019-03-24T05:23:49.075Z,4.02
2019-03-24T05:28:58.228Z,3.54
2019-03-24T05:34:07.374Z,3.96
2019-03-24T05:39:16.542Z,3.58
2019-03-24T05:44:25.603Z,5.16
2019-03-24T05:49:34.753Z,4.94
2019-03-24T05:54:43.849Z,4.48
2019-03-24T05:59:52.966Z,4.06
2019-03-24T06:05:01.974Z,4.49
2019-03-24T06:10:11.141Z,4.52
2019-03-24T06:15:20.233Z,4.58
2019-03-24T06:20:29.345Z,4.20
2019-03-24T06:25:38.410Z,4.69
2019-03-24T06:30:47.521Z,4.59
2019-03-24T06:35:56.582Z,4.82
2019-03-24T06:41:05.673Z,4.90
2019-03-24T06:46:15.084Z,4.82
2019-03-24T06:51:23.449Z,5.45
2019-03-24T06:56:32.509Z,5.04
2019-03-24T07:01:41.621Z,5.66
2019-03-24T07:06:50.646Z,4.95
2019-03-24T07:12:00.234Z,3.58
2019-03-24T07:17:08.457Z,2.00
2019-03-24T07:22:17.657Z,3.25
2019-03-24T07:27:26.911Z,4.48
2019-03-24T07:32:36.126Z,3.11
2019-03-24T07:37:45.315Z,5.03
2019-03-24T07:42:54.465Z,3.36
2019-03-24T07:48:03.742Z,3.02
2019-03-24T07:53:12.914Z,3.18
2019-03-24T07:58:21.961Z,2.67
2019-03-24T08:03:31.418Z,2.13
2019-03-24T08:08:44.222Z,2.78
2019-03-24T08:13:54.000Z,2.24
2019-03-24T08:18:57.961Z,2.61
2019-03-24T08:24:07.097Z,3.30
2019-03-24T08:29:16.187Z,3.38
2019-03-24T08:34:25.288Z,3.04
2019-03-24T08:39:34.345Z,2.91
2019-03-24T08:44:43.507Z,2.73
2019-03-24T08:49:52.673Z,3.08
2019-03-24T08:55:01.878Z,2.93
2019-03-24T09:00:10.904Z,2.74
2019-03-24T09:05:20.007Z,2.27
2019-03-24T09:10:29.094Z,2.29
2019-03-24T09:15:38.284Z,2.66
2019-03-24T09:20:47.524Z,2.84
2019-03-24T09:25:56.739Z,3.94
2019-03-24T09:31:06.834Z,3.33
2019-03-24T09:36:05.884Z,3.29
2019-03-24T09:41:14.966Z,2.50
2019-03-24T09:46:24.100Z,3.26
2019-03-24T09:51:33.179Z,2.67
2019-03-24T09:56:42.285Z,3.00
2019-03-24T10:01:51.341Z,3.28
2019-03-24T10:07:00.505Z,3.82
2019-03-24T10:12:09.589Z,3.52
2019-03-24T10:17:18.957Z,3.93
2019-03-24T10:22:28.018Z,3.90
2019-03-24T10:27:37.181Z,4.73
2019-03-24T10:32:46.227Z,4.75
2019-03-24T10:37:55.338Z,4.52
2019-03-24T10:43:04.373Z,5.72
2019-03-24T10:48:13.513Z,5.13
2019-03-24T10:53:22.860Z,5.59
2019-03-24T10:58:32.047Z,5.46
2019-03-24T11:03:41.138Z,5.08
2019-03-24T11:08:50.310Z,4.51
2019-03-24T11:13:59.398Z,4.90
2019-03-24T11:19:08.498Z,4.54
2019-03-24T11:24:17.517Z,3.96
2019-03-24T11:29:26.640Z,3.88
2019-03-24T11:34:35.732Z,3.17
2019-03-24T11:39:44.847Z,2.94
2019-03-24T11:44:53.867Z,4.59
2019-03-24T11:50:02.981Z,3.84
2019-03-24T11:55:12.042Z,2.71
2019-03-24T12:00:21.244Z,3.01
2019-03-24T12:05:30.274Z,4.03
2019-03-24T12:10:39.405Z,3.31
2019-03-24T12:15:48.456Z,4.27
2019-03-24T12:20:57.578Z,4.37
2019-03-24T12:26:06.658Z,4.42
2019-03-24T12:31:15.795Z,3.79
2019-03-24T12:36:24.876Z,3.28
2019-03-24T12:41:36.006Z,2.97
2019-03-24T12:46:34.979Z,4.19
2019-03-24T12:51:44.500Z,3.59
2019-03-24T12:56:53.760Z,3.43
2019-03-24T13:02:02.930Z,3.57
2019-03-24T13:07:12.256Z,4.49
2019-03-24T13:12:21.590Z,3.95
2019-03-24T13:17:30.646Z,3.69
2019-03-24T13:22:39.999Z,3.59
2019-03-24T13:27:49.101Z,3.38
2019-03-24T13:32:58.209Z,3.07
2019-03-24T13:38:07.260Z,2.84
2019-03-24T13:43:16.396Z,3.24
2019-03-24T13:48:25.424Z,3.60
2019-03-24T13:53:34.530Z,4.54
2019-03-24T13:58:43.562Z,4.96
2019-03-24T14:03:52.858Z,4.39
2019-03-24T14:09:01.926Z,4.39
2019-03-24T14:14:11.054Z,4.16
2019-03-24T14:19:20.208Z,4.01
2019-03-24T14:24:30.098Z,3.86
2019-03-24T14:29:39.166Z,3.93
2019-03-24T14:34:48.293Z,4.11
2019-03-24T14:39:57.302Z,5.57
2019-03-24T14:45:06.489Z,5.43
2019-03-24T14:50:15.538Z,5.32
2019-03-24T14:55:24.731Z,6.25
2019-03-24T15:00:33.766Z,6.17
2019-03-24T15:05:42.875Z,7.32
2019-03-24T15:10:51.934Z,4.31
2019-03-24T15:16:01.208Z,4.34
2019-03-24T15:21:11.480Z,4.33
2019-03-24T15:26:18.905Z,4.10
2019-03-24T15:31:28.011Z,2.71
2019-03-24T15:36:37.229Z,3.08
2019-03-24T15:41:46.366Z,4.84
2019-03-24T15:46:55.477Z,4.82
2019-03-24T15:52:04.519Z,6.05
2019-03-24T15:57:13.722Z,5.32
2019-03-24T16:02:22.921Z,4.29
2019-03-24T16:07:32.315Z,5.39
2019-03-24T16:12:42.387Z,6.46
2019-03-24T16:17:41.450Z,4.75
2019-03-24T16:22:50.546Z,5.65
2019-03-24T16:27:59.665Z,4.87
2019-03-24T16:33:08.730Z,5.30
2019-03-24T16:38:17.894Z,6.03
2019-03-24T16:43:26.961Z,5.44
2019-03-24T16:48:37.029Z,6.66
2019-03-24T16:53:44.649Z,5.32
2019-03-24T16:58:53.872Z,5.80
2019-03-24T17:04:02.966Z,4.44
2019-03-24T17:09:12.145Z,6.66
2019-03-24T17:14:21.334Z,5.01
2019-03-24T17:19:30.618Z,5.29
2019-03-24T17:24:40.246Z,4.66
2019-03-24T17:29:49.445Z,4.28
2019-03-24T17:34:58.497Z,4.93
2019-03-24T17:40:07.589Z,5.04
2019-03-24T17:45:16.622Z,5.82
2019-03-24T17:50:25.749Z,5.81
2019-03-24T17:55:34.798Z,7.12
2019-03-24T18:00:44.005Z,6.92
2019-03-24T18:05:53.077Z,7.56
2019-03-24T18:11:02.190Z,7.45
2019-03-24T18:16:11.213Z,7.46
2019-03-24T18:21:20.381Z,6.87
2019-03-24T18:26:29.480Z,7.92
2019-03-24T18:31:38.753Z,6.39
2019-03-24T18:36:47.802Z,7.26
2019-03-24T18:41:56.925Z,5.89
2019-03-24T18:47:05.974Z,6.04
2019-03-24T18:52:22.677Z,5.79
2019-03-24T18:57:23.686Z,6.26
2019-03-24T19:02:32.945Z,6.35
2019-03-24T19:07:42.016Z,5.91
2019-03-24T19:12:51.153Z,6.97
2019-03-24T19:18:00.204Z,8.34
2019-03-24T19:23:09.365Z,6.69
2019-03-24T19:28:18.397Z,5.84
2019-03-24T19:33:29.568Z,5.99
2019-03-24T19:38:36.244Z,5.93
2019-03-24T19:43:45.322Z,5.97
2019-03-24T19:48:54.468Z,5.49
2019-03-24T19:54:03.702Z,5.39
2019-03-24T19:59:12.770Z,7.01
2019-03-24T20:04:21.949Z,6.81
2019-03-24T20:09:31.023Z,7.00
2019-03-24T20:14:40.139Z,6.58
2019-03-24T20:19:49.183Z,5.00
2019-03-24T20:24:58.393Z,5.22
2019-03-24T20:30:07.449Z,6.44
2019-03-24T20:35:16.592Z,6.74
2019-03-24T20:40:25.663Z,6.27
2019-03-24T20:45:34.829Z,5.52
2019-03-24T20:50:43.918Z,6.34
2019-03-24T20:55:53.076Z,7.39
2019-03-24T21:01:13.897Z,6.35
2019-03-24T21:06:02.942Z,5.48
2019-03-24T21:11:11.962Z,6.49
2019-03-24T21:16:21.069Z,6.59
2019-03-24T21:21:30.117Z,6.66
2019-03-24T21:26:39.389Z,7.38
2019-03-24T21:31:48.438Z,7.61
2019-03-24T21:36:57.574Z,6.88
2019-03-24T21:42:06.626Z,6.35
2019-03-24T21:47:15.814Z,7.46
2019-03-24T21:52:24.862Z,7.17
2019-03-24T21:57:34.083Z,7.04
2019-03-24T22:02:43.125Z,7.67
2019-03-24T22:07:52.292Z,7.42
2019-03-24T22:13:01.354Z,8.00
2019-03-24T22:18:10.549Z,5.84
2019-03-24T22:23:19.641Z,3.74
2019-03-24T22:28:28.750Z,4.77
2019-03-24T22:33:37.796Z,5.27
2019-03-24T22:38:47.644Z,6.15
2019-03-24T22:43:56.734Z,6.18
2019-03-24T22:49:05.913Z,6.43
2019-03-24T22:54:14.986Z,7.65
2019-03-24T22:59:24.145Z,5.41
2019-03-24T23:04:33.186Z,5.32
2019-03-24T23:09:42.353Z,6.98
2019-03-24T23:14:51.417Z,5.84
2019-03-24T23:20:00.743Z,5.55
2019-03-24T23:25:09.826Z,4.61
2019-03-24T23:30:18.930Z,5.30
2019-03-24T23:35:27.957Z,5.21
2019-03-24T23:40:37.173Z,6.12
2019-03-24T23:45:46.270Z,5.96
2019-03-24T23:50:55.395Z,5.93
2019-03-24T23:56:04.529Z,5.67
